createdAt,value
2023-10-14T00:02:22.252Z,17.10
2023-10-14T00:04:53.769Z,17.20
2023-10-14T00:07:26.039Z,17.12
2023-10-14T00:09:58.357Z,17.00
2023-10-14T00:12:29.787Z,17.09
2023-10-14T00:15:04.553Z,17.17
2023-10-14T00:17:36.977Z,17.32
2023-10-14T00:20:06.136Z,17.12
2023-10-14T00:22:34.091Z,17.41
2023-10-14T00:25:01.573Z,17.45
2023-10-14T00:27:29.390Z,17.63
2023-10-14T00:30:10.728Z,17.40
2023-10-14T00:32:40.299Z,17.71
2023-10-14T00:35:10.641Z,17.25
2023-10-14T00:37:38.614Z,17.31
2023-10-14T00:40:13.004Z,17.17
2023-10-14T00:42:43.067Z,16.87
2023-10-14T00:45:12.512Z,16.71
2023-10-14T00:47:41.820Z,16.87
2023-10-14T00:50:22.766Z,16.66
2023-10-14T00:52:58.541Z,16.65
2023-10-14T00:55:39.520Z,16.70
2023-10-14T00:58:07.296Z,16.86
2023-10-14T01:00:39.273Z,16.76
2023-10-14T01:03:11.724Z,16.93
2023-10-14T01:05:39.674Z,17.22
2023-10-14T01:08:12.618Z,17.20
2023-10-14T01:10:43.172Z,17.12
2023-10-14T01:13:15.395Z,16.99
2023-10-14T01:15:50.640Z,17.16
2023-10-14T01:18:19.011Z,16.82
2023-10-14T01:20:47.670Z,16.58
2023-10-14T01:23:18.639Z,16.80
2023-10-14T01:25:49.115Z,17.00
2023-10-14T01:28:31.405Z,16.80
2023-10-14T01:31:07.961Z,16.54
2023-10-14T01:33:37.397Z,16.73
2023-10-14T01:36:05.885Z,16.15
2023-10-14T01:38:34.195Z,16.29
2023-10-14T01:41:05.798Z,16.31
2023-10-14T01:43:33.401Z,16.51
2023-10-14T01:46:02.301Z,16.28
2023-10-14T01:48:33.041Z,15.97
2023-10-14T01:51:01.690Z,16.00
2023-10-14T01:53:33.171Z,16.27
2023-10-14T01:56:02.821Z,16.27
2023-10-14T01:58:34.873Z,16.34
2023-10-14T02:01:14.815Z,16.37
2023-10-14T02:03:52.862Z,16.38
2023-10-14T02:06:26.406Z,16.45
2023-10-14T02:08:59.452Z,16.41
2023-10-14T02:11:34.759Z,16.22
2023-10-14T02:14:07.649Z,16.36
2023-10-14T02:16:43.387Z,16.28
2023-10-14T02:19:27.298Z,16.34
2023-10-14T02:22:01.590Z,16.42
2023-10-14T02:24:29.398Z,16.43
2023-10-14T02:27:07.919Z,16.63
2023-10-14T02:29:35.427Z,16.69
2023-10-14T02:32:03.239Z,16.93
2023-10-14T02:34:32.046Z,17.00
2023-10-14T02:37:02.884Z,16.85
2023-10-14T02:39:30.750Z,16.94
2023-10-14T02:42:01.888Z,16.76
2023-10-14T02:44:34.375Z,16.80
2023-10-14T02:47:05.760Z,16.86
2023-10-14T02:49:56.859Z,16.83
2023-10-14T02:52:30.968Z,16.82
2023-10-14T02:55:38.535Z,16.85
2023-10-14T02:58:07.579Z,16.85
2023-10-14T03:00:35.096Z,17.00
2023-10-14T03:03:14.237Z,16.71
2023-10-14T03:05:52.405Z,16.75
2023-10-14T03:08:23.248Z,16.80
2023-10-14T03:10:57.265Z,16.81
2023-10-14T03:13:25.478Z,16.73
2023-10-14T03:15:55.942Z,16.56
2023-10-14T03:18:32.007Z,16.51
2023-10-14T03:21:00.593Z,16.60
2023-10-14T03:23:29.410Z,16.52
2023-10-14T03:26:16.295Z,16.36
2023-10-14T03:28:51.347Z,16.46
2023-10-14T03:31:20.714Z,16.18
2023-10-14T03:33:48.763Z,16.36
2023-10-14T03:36:21.422Z,16.29
2023-10-14T03:38:57.153Z,16.52
2023-10-14T03:41:30.140Z,16.49
2023-10-14T03:43:58.095Z,16.21
2023-10-14T03:46:36.766Z,16.40
2023-10-14T03:49:22.873Z,16.18
2023-10-14T03:51:55.889Z,16.27
2023-10-14T03:54:25.422Z,16.22
2023-10-14T03:56:53.488Z,16.42
2023-10-14T03:59:23.805Z,16.23
2023-10-14T04:02:00.362Z,16.23
2023-10-14T04:04:30.173Z,16.36
2023-10-14T04:07:01.161Z,16.09
2023-10-14T04:09:52.439Z,16.06
2023-10-14T04:12:39.314Z,16.03
2023-10-14T04:15:14.095Z,15.91
2023-10-14T04:17:47.616Z,16.07
2023-10-14T04:20:22.543Z,16.05
2023-10-14T04:22:54.435Z,16.38
2023-10-14T04:25:25.840Z,16.09
2023-10-14T04:27:54.217Z,16.00
2023-10-14T04:30:33.248Z,16.02
2023-10-14T04:33:04.407Z,15.86
2023-10-14T04:35:34.502Z,15.87
2023-10-14T04:38:05.124Z,16.10
2023-10-14T04:40:35.470Z,15.76
2023-10-14T04:43:17.925Z,15.80
2023-10-14T04:45:52.425Z,15.84
2023-10-14T04:48:29.362Z,15.99
2023-10-14T04:51:01.405Z,15.66
2023-10-14T04:53:28.910Z,15.69
2023-10-14T04:55:56.780Z,15.62
2023-10-14T04:58:34.090Z,15.44
2023-10-14T05:01:02.453Z,15.80
2023-10-14T05:03:30.709Z,15.62
2023-10-14T05:05:58.416Z,15.69
2023-10-14T05:08:44.989Z,15.74
2023-10-14T05:11:19.762Z,15.69
2023-10-14T05:13:55.291Z,15.58
2023-10-14T05:16:23.255Z,15.39
2023-10-14T05:19:08.655Z,15.47
2023-10-14T05:21:36.696Z,15.44
2023-10-14T05:24:10.552Z,15.58
2023-10-14T05:26:45.481Z,15.89
2023-10-14T05:29:20.325Z,15.66
2023-10-14T05:31:48.958Z,15.71
2023-10-14T05:34:22.928Z,15.73
2023-10-14T05:36:53.857Z,15.89
2023-10-14T05:39:22.882Z,15.62
2023-10-14T05:41:57.006Z,15.34
2023-10-14T05:44:28.324Z,15.51
2023-10-14T05:46:56.468Z,15.62
2023-10-14T05:49:26.078Z,15.91
2023-10-14T05:51:54.855Z,15.94
2023-10-14T05:54:23.979Z,15.63
2023-10-14T05:56:54.219Z,15.51
2023-10-14T05:59:22.330Z,15.47
2023-10-14T06:01:50.153Z,15.73
2023-10-14T06:04:18.297Z,15.91
2023-10-14T06:06:46.032Z,15.85
2023-10-14T06:09:17.853Z,15.71
2023-10-14T06:11:48.477Z,15.87
2023-10-14T06:14:15.871Z,16.10
2023-10-14T06:16:43.350Z,15.92
2023-10-14T06:19:14.250Z,15.94
2023-10-14T06:21:41.864Z,16.22
2023-10-14T06:24:12.029Z,16.08
2023-10-14T06:26:39.962Z,16.06
2023-10-14T06:29:10.977Z,16.07
2023-10-14T06:31:42.224Z,16.06
2023-10-14T06:34:12.616Z,16.09
2023-10-14T06:36:40.106Z,16.24
2023-10-14T06:39:16.690Z,16.23
2023-10-14T06:41:44.780Z,16.35
2023-10-14T06:44:16.502Z,16.60
2023-10-14T06:46:47.328Z,16.69
2023-10-14T06:49:15.396Z,16.78
2023-10-14T06:51:43.476Z,17.00
2023-10-14T06:54:11.180Z,16.76
2023-10-14T06:56:38.622Z,16.95
2023-10-14T06:59:06.924Z,17.23
2023-10-14T07:01:36.008Z,17.09
2023-10-14T07:04:04.153Z,17.45
2023-10-14T07:06:32.576Z,17.40
2023-10-14T07:09:06.598Z,17.33
2023-10-14T07:11:34.001Z,17.45
2023-10-14T07:14:01.740Z,17.65
2023-10-14T07:16:29.700Z,17.96
2023-10-14T07:18:57.348Z,18.09
2023-10-14T07:21:25.166Z,18.21
2023-10-14T07:23:52.658Z,18.13
2023-10-14T07:26:20.159Z,18.28
2023-10-14T07:28:52.739Z,18.34
2023-10-14T07:31:25.377Z,18.43
2023-10-14T07:33:54.348Z,18.51
2023-10-14T07:36:21.917Z,18.73
2023-10-14T07:38:49.357Z,18.92
2023-10-14T07:41:17.418Z,18.98
2023-10-14T07:43:45.185Z,18.79
2023-10-14T07:46:12.795Z,19.39
2023-10-14T07:48:41.581Z,19.33
2023-10-14T07:51:28.048Z,19.26
2023-10-14T07:53:57.492Z,19.26
2023-10-14T07:56:24.959Z,19.58
2023-10-14T07:58:54.511Z,19.96
2023-10-14T08:01:24.762Z,20.16
2023-10-14T08:03:58.182Z,20.17
2023-10-14T08:06:27.316Z,20.18
2023-10-14T08:08:55.054Z,20.97
2023-10-14T08:11:23.392Z,21.05
2023-10-14T08:13:51.030Z,21.07
2023-10-14T08:16:19.838Z,21.41
2023-10-14T08:18:48.047Z,21.63
2023-10-14T08:21:15.686Z,21.75
2023-10-14T08:23:43.379Z,21.89
2023-10-14T08:26:15.153Z,22.23
2023-10-14T08:28:43.936Z,22.13
2023-10-14T08:31:13.145Z,22.62
2023-10-14T08:33:44.001Z,22.95
2023-10-14T08:36:14.829Z,22.94
2023-10-14T08:38:44.550Z,22.69
2023-10-14T08:41:16.876Z,22.86
2023-10-14T08:43:51.131Z,23.16
2023-10-14T08:46:20.114Z,23.35
2023-10-14T08:48:51.460Z,23.47
2023-10-14T08:51:19.944Z,23.75
2023-10-14T08:53:53.682Z,24.08
2023-10-14T08:56:23.766Z,24.24
2023-10-14T08:58:51.581Z,24.47
2023-10-14T09:01:19.862Z,24.71
2023-10-14T09:03:50.977Z,24.96
2023-10-14T09:06:19.705Z,25.04
2023-10-14T09:08:49.181Z,24.92
2023-10-14T09:11:29.546Z,25.09
2023-10-14T09:14:05.152Z,25.37
2023-10-14T09:16:37.866Z,25.37
2023-10-14T09:19:06.595Z,25.82
2023-10-14T09:21:44.295Z,26.08
2023-10-14T09:24:12.377Z,26.42
2023-10-14T09:26:45.083Z,26.48
2023-10-14T09:29:13.196Z,26.76
2023-10-14T09:31:42.100Z,26.46
2023-10-14T09:34:23.677Z,26.65
2023-10-14T09:36:53.441Z,26.80
2023-10-14T09:39:26.146Z,27.12
2023-10-14T09:41:55.117Z,26.95
2023-10-14T09:44:23.019Z,27.22
2023-10-14T09:46:54.109Z,27.65
2023-10-14T09:49:24.346Z,27.68
2023-10-14T09:51:55.202Z,28.02
2023-10-14T09:54:23.699Z,27.29
2023-10-14T09:56:51.650Z,27.64
2023-10-14T09:59:22.676Z,27.91
2023-10-14T10:01:51.951Z,28.22
2023-10-14T10:04:23.420Z,27.99
2023-10-14T10:07:05.349Z,28.54
2023-10-14T10:09:49.199Z,28.59
2023-10-14T10:12:17.902Z,28.67
2023-10-14T10:14:45.631Z,27.67
2023-10-14T10:17:14.151Z,27.91
2023-10-14T10:20:10.818Z,27.94
2023-10-14T10:22:52.161Z,27.81
2023-10-14T10:25:24.269Z,27.80
2023-10-14T10:27:56.411Z,27.82
2023-10-14T10:30:25.992Z,28.35
2023-10-14T10:32:53.834Z,28.00
2023-10-14T10:35:21.919Z,28.09
2023-10-14T10:37:55.857Z,28.16
2023-10-14T10:40:28.215Z,28.03
2023-10-14T10:43:14.013Z,27.91
2023-10-14T10:45:43.742Z,28.73
2023-10-14T10:48:17.686Z,28.61
2023-10-14T10:50:51.778Z,28.64
2023-10-14T10:53:20.796Z,29.14
2023-10-14T10:55:52.077Z,28.69
2023-10-14T10:58:22.289Z,29.21
2023-10-14T11:00:51.681Z,29.10
2023-10-14T11:03:19.450Z,28.91
2023-10-14T11:05:48.090Z,29.33
2023-10-14T11:08:17.472Z,29.08
2023-10-14T11:10:49.709Z,28.67
2023-10-14T11:13:17.845Z,28.75
2023-10-14T11:15:48.916Z,29.25
2023-10-14T11:18:31.693Z,29.32
2023-10-14T11:21:04.612Z,29.35
2023-10-14T11:23:35.368Z,29.62
2023-10-14T11:26:09.574Z,29.60
2023-10-14T11:28:39.935Z,29.73
2023-10-14T11:31:11.754Z,29.67
2023-10-14T11:33:39.842Z,29.71
2023-10-14T11:36:07.651Z,29.85
2023-10-14T11:38:44.182Z,30.32
2023-10-14T11:41:13.830Z,29.94
2023-10-14T11:43:45.415Z,30.18
2023-10-14T11:46:14.145Z,30.28
2023-10-14T11:48:46.301Z,30.35
2023-10-14T11:51:21.040Z,30.44
2023-10-14T11:53:54.049Z,30.22
2023-10-14T11:56:22.113Z,30.09
2023-10-14T11:58:50.859Z,29.97
2023-10-14T12:01:24.937Z,29.79
2023-10-14T12:03:53.526Z,30.10
2023-10-14T12:06:21.190Z,30.30
2023-10-14T12:08:52.835Z,30.31
2023-10-14T12:11:21.193Z,30.38
2023-10-14T12:13:51.119Z,30.71
2023-10-14T12:16:19.650Z,30.65
2023-10-14T12:18:47.965Z,30.82
2023-10-14T12:21:15.603Z,30.88
2023-10-14T12:23:47.285Z,30.83
2023-10-14T12:26:30.961Z,30.97
2023-10-14T12:29:08.916Z,30.94
2023-10-14T12:31:40.064Z,30.95
2023-10-14T12:34:10.261Z,30.98
2023-10-14T12:36:42.386Z,30.94
2023-10-14T12:39:20.966Z,31.06
2023-10-14T12:41:52.112Z,31.02
2023-10-14T12:44:23.096Z,30.99
2023-10-14T12:46:50.930Z,30.90
2023-10-14T12:49:21.931Z,31.03
2023-10-14T12:51:50.120Z,30.99
2023-10-14T12:54:18.753Z,31.17
2023-10-14T12:56:47.313Z,30.85
2023-10-14T12:59:15.105Z,30.77
2023-10-14T13:01:59.954Z,30.84
2023-10-14T13:04:31.009Z,30.87
2023-10-14T13:06:59.382Z,31.25
2023-10-14T13:09:31.481Z,31.23
2023-10-14T13:12:00.129Z,31.12
2023-10-14T13:14:28.540Z,31.16
2023-10-14T13:17:02.969Z,30.96
2023-10-14T13:19:36.287Z,31.35
2023-10-14T13:22:11.490Z,31.29
2023-10-14T13:24:39.732Z,30.77
2023-10-14T13:27:07.958Z,30.77
2023-10-14T13:29:37.515Z,31.02
2023-10-14T13:32:05.898Z,30.19
2023-10-14T13:34:34.189Z,30.09
2023-10-14T13:37:02.003Z,30.29
2023-10-14T13:39:36.401Z,30.40
2023-10-14T13:42:07.270Z,30.47
2023-10-14T13:44:36.019Z,30.45
2023-10-14T13:47:06.272Z,30.16
2023-10-14T13:49:35.555Z,29.88
2023-10-14T13:52:05.512Z,30.01
2023-10-14T13:54:34.207Z,29.58
2023-10-14T13:57:02.564Z,29.32
2023-10-14T13:59:30.103Z,29.44
2023-10-14T14:01:57.665Z,29.88
2023-10-14T14:04:25.683Z,29.83
2023-10-14T14:06:53.920Z,29.38
2023-10-14T14:09:24.692Z,29.15
2023-10-14T14:11:57.266Z,29.56
2023-10-14T14:14:26.068Z,29.52
2023-10-14T14:16:54.329Z,29.54
2023-10-14T14:19:22.421Z,29.25
2023-10-14T14:21:53.447Z,29.56
2023-10-14T14:24:23.927Z,29.21
2023-10-14T14:26:52.408Z,29.10
2023-10-14T14:29:19.941Z,29.16
2023-10-14T14:31:48.462Z,29.28
2023-10-14T14:34:16.458Z,29.27
2023-10-14T14:36:46.196Z,29.21
2023-10-14T14:39:16.926Z,29.47
2023-10-14T14:41:45.598Z,29.27
2023-10-14T14:44:14.540Z,29.08
2023-10-14T14:46:43.438Z,28.72
2023-10-14T14:49:13.942Z,28.93
2023-10-14T14:51:43.726Z,28.77
2023-10-14T14:54:11.674Z,28.26
2023-10-14T14:56:39.305Z,28.41
2023-10-14T14:59:06.778Z,28.22
2023-10-14T15:01:35.918Z,27.88
2023-10-14T15:04:05.436Z,27.68
2023-10-14T15:06:33.102Z,27.77
2023-10-14T15:09:01.771Z,27.53
2023-10-14T15:11:31.142Z,27.24
2023-10-14T15:13:58.615Z,27.42
2023-10-14T15:16:40.864Z,27.38
2023-10-14T15:19:09.375Z,27.09
2023-10-14T15:21:37.330Z,27.13
2023-10-14T15:24:06.734Z,27.22
2023-10-14T15:26:34.475Z,27.08
2023-10-14T15:29:05.276Z,26.87
2023-10-14T15:31:33.127Z,26.94
2023-10-14T15:34:03.156Z,26.79
2023-10-14T15:36:30.693Z,26.59
2023-10-14T15:38:59.380Z,26.46
2023-10-14T15:41:27.145Z,26.42
2023-10-14T15:43:54.708Z,26.37
2023-10-14T15:46:22.212Z,26.06
2023-10-14T15:48:52.811Z,26.59
2023-10-14T15:51:20.679Z,26.78
2023-10-14T15:53:54.016Z,26.81
2023-10-14T15:56:21.950Z,26.65
2023-10-14T15:58:51.817Z,26.22
2023-10-14T16:01:21.600Z,26.25
2023-10-14T16:03:49.638Z,25.99
2023-10-14T16:06:17.279Z,25.88
2023-10-14T16:08:44.784Z,25.83
2023-10-14T16:11:16.079Z,25.16
2023-10-14T16:13:43.902Z,25.90
2023-10-14T16:16:11.684Z,25.42
2023-10-14T16:18:39.224Z,24.96
2023-10-14T16:21:06.716Z,25.10
2023-10-14T16:23:34.524Z,24.67
2023-10-14T16:26:02.010Z,24.70
2023-10-14T16:28:29.471Z,24.90
2023-10-14T16:31:00.100Z,24.73
2023-10-14T16:33:28.870Z,24.51
2023-10-14T16:35:58.456Z,24.35
2023-10-14T16:38:26.059Z,24.31
2023-10-14T16:40:53.667Z,24.33
2023-10-14T16:43:24.453Z,24.47
2023-10-14T16:45:52.728Z,23.66
2023-10-14T16:48:20.979Z,23.54
2023-10-14T16:50:48.677Z,22.60
2023-10-14T16:53:17.195Z,22.37
2023-10-14T16:55:46.658Z,22.22
2023-10-14T16:58:15.234Z,22.32
2023-10-14T17:00:42.847Z,22.92
2023-10-14T17:03:11.223Z,23.17
2023-10-14T17:05:41.052Z,23.23
2023-10-14T17:08:10.365Z,23.17
2023-10-14T17:10:39.740Z,23.14
2023-10-14T17:13:10.066Z,22.94
2023-10-14T17:15:38.460Z,22.05
2023-10-14T17:18:07.929Z,22.55
2023-10-14T17:20:36.603Z,22.34
2023-10-14T17:23:05.500Z,22.16
2023-10-14T17:25:34.694Z,22.26
2023-10-14T17:28:07.215Z,22.67
2023-10-14T17:30:34.832Z,22.26
2023-10-14T17:33:03.899Z,22.10
2023-10-14T17:35:33.552Z,22.23
2023-10-14T17:38:02.334Z,22.17
2023-10-14T17:40:30.975Z,21.84
2023-10-14T17:43:05.937Z,21.36
2023-10-14T17:45:34.987Z,21.90
2023-10-14T17:48:07.691Z,21.56
2023-10-14T17:50:36.950Z,21.12
2023-10-14T17:53:10.886Z,21.05
2023-10-14T17:55:38.752Z,20.99
2023-10-14T17:58:06.897Z,21.11
2023-10-14T18:00:35.800Z,21.02
2023-10-14T18:03:09.387Z,21.05
2023-10-14T18:05:44.568Z,21.08
2023-10-14T18:08:13.941Z,21.39
2023-10-14T18:10:42.712Z,21.09
2023-10-14T18:13:12.765Z,21.40
2023-10-14T18:15:42.044Z,21.22
2023-10-14T18:18:10.368Z,21.05
2023-10-14T18:20:39.081Z,20.48
2023-10-14T18:23:08.503Z,20.83
2023-10-14T18:25:44.256Z,20.83
2023-10-14T18:28:14.021Z,21.04
2023-10-14T18:30:42.278Z,20.47
2023-10-14T18:33:12.808Z,20.54
2023-10-14T18:35:41.975Z,20.84
2023-10-14T18:38:12.474Z,20.42
2023-10-14T18:40:44.255Z,20.45
2023-10-14T18:43:14.710Z,20.51
2023-10-14T18:45:44.634Z,20.35
2023-10-14T18:48:13.757Z,20.10
2023-10-14T18:50:43.279Z,20.13
2023-10-14T18:53:14.125Z,20.13
2023-10-14T18:55:52.388Z,20.70
2023-10-14T18:58:21.739Z,20.62
2023-10-14T19:00:50.754Z,20.42
2023-10-14T19:03:19.487Z,20.28
2023-10-14T19:05:48.034Z,20.24
2023-10-14T19:08:16.943Z,20.28
2023-10-14T19:10:50.008Z,20.18
2023-10-14T19:13:20.820Z,20.20
2023-10-14T19:15:55.365Z,20.35
2023-10-14T19:18:24.719Z,20.30
2023-10-14T19:20:54.047Z,20.43
2023-10-14T19:23:30.502Z,20.53
2023-10-14T19:26:04.882Z,20.40
2023-10-14T19:28:33.304Z,20.21
2023-10-14T19:31:03.684Z,20.19
2023-10-14T19:33:32.721Z,20.09
2023-10-14T19:36:07.467Z,20.03
2023-10-14T19:38:38.976Z,19.90
2023-10-14T19:41:07.996Z,19.92
2023-10-14T19:43:38.453Z,19.88
2023-10-14T19:46:10.847Z,19.78
2023-10-14T19:48:44.674Z,20.14
2023-10-14T19:51:15.146Z,20.16
2023-10-14T19:53:44.697Z,20.01
2023-10-14T19:56:13.714Z,19.94
2023-10-14T19:58:45.084Z,20.01
2023-10-14T20:01:17.580Z,19.86
2023-10-14T20:03:47.253Z,19.88
2023-10-14T20:06:20.483Z,19.79
2023-10-14T20:08:51.935Z,19.91
2023-10-14T20:11:20.209Z,19.92
2023-10-14T20:13:48.573Z,19.83
2023-10-14T20:16:17.845Z,19.99
2023-10-14T20:18:46.410Z,19.93
2023-10-14T20:21:15.286Z,19.83
2023-10-14T20:23:44.976Z,19.73
2023-10-14T20:26:14.161Z,19.65
2023-10-14T20:28:46.067Z,19.64
2023-10-14T20:31:14.719Z,19.69
2023-10-14T20:33:42.815Z,19.86
2023-10-14T20:36:10.521Z,19.84
2023-10-14T20:38:37.981Z,19.95
2023-10-14T20:41:07.763Z,19.94
2023-10-14T20:43:36.121Z,19.88
2023-10-14T20:46:10.416Z,19.96
2023-10-14T20:48:39.245Z,19.87
2023-10-14T20:51:11.059Z,19.81
2023-10-14T20:53:38.745Z,19.87
2023-10-14T20:56:14.880Z,19.65
2023-10-14T20:58:42.879Z,19.30
2023-10-14T21:01:15.591Z,19.56
2023-10-14T21:03:44.048Z,19.61
2023-10-14T21:08:39.749Z,19.39
2023-10-14T21:11:11.904Z,19.61
2023-10-14T21:13:39.733Z,19.29
2023-10-14T21:16:07.269Z,19.18
2023-10-14T21:18:35.831Z,19.41
2023-10-14T21:21:11.148Z,19.16
2023-10-14T21:23:39.430Z,19.31
2023-10-14T21:26:07.092Z,19.52
2023-10-14T21:28:34.693Z,19.38
2023-10-14T21:31:03.772Z,19.29
2023-10-14T21:33:32.585Z,19.32
2023-10-14T21:36:00.189Z,19.37
2023-10-14T21:38:27.978Z,19.64
2023-10-14T21:40:55.579Z,19.43
2023-10-14T21:43:23.691Z,19.32
2023-10-14T21:45:52.335Z,19.55
2023-10-14T21:48:20.659Z,19.55
2023-10-14T21:50:48.128Z,19.58
2023-10-14T21:53:15.862Z,19.64
2023-10-14T21:55:43.526Z,19.66
2023-10-14T21:58:15.079Z,19.89
2023-10-14T22:00:49.991Z,20.15
2023-10-14T22:03:21.371Z,20.15
2023-10-14T22:05:49.409Z,20.48
2023-10-14T22:08:19.745Z,20.73
2023-10-14T22:10:53.445Z,20.87
2023-10-14T22:13:22.821Z,21.08
2023-10-14T22:15:51.441Z,20.93
2023-10-14T22:18:21.802Z,21.24
2023-10-14T22:20:51.519Z,21.18
2023-10-14T22:23:19.388Z,21.14
2023-10-14T22:25:47.136Z,21.55
2023-10-14T22:28:17.017Z,21.70
2023-10-14T22:30:46.984Z,21.73
2023-10-14T22:33:14.892Z,21.68
2023-10-14T22:35:43.302Z,21.77
2023-10-14T22:38:13.267Z,21.58
2023-10-14T22:40:43.827Z,21.41
2023-10-14T22:43:12.159Z,21.53
2023-10-14T22:45:39.830Z,21.71
2023-10-14T22:48:08.476Z,21.59
2023-10-14T22:50:38.655Z,21.74
2023-10-14T22:53:08.049Z,21.64
2023-10-14T22:55:35.997Z,21.66
2023-10-14T22:58:06.286Z,21.80
2023-10-14T23:00:34.178Z,21.67
2023-10-14T23:03:10.819Z,21.61
2023-10-14T23:05:42.767Z,21.38
2023-10-14T23:08:14.128Z,21.41
2023-10-14T23:10:42.144Z,21.26
2023-10-14T23:13:09.986Z,21.38
2023-10-14T23:15:40.365Z,21.26
2023-10-14T23:18:08.093Z,21.28
2023-10-14T23:20:36.403Z,21.06
2023-10-14T23:23:06.501Z,21.24
2023-10-14T23:25:36.345Z,21.06
2023-10-14T23:28:04.900Z,21.33
2023-10-14T23:30:32.522Z,21.09
2023-10-14T23:33:01.722Z,21.13
2023-10-14T23:35:29.783Z,20.75
2023-10-14T23:38:02.882Z,20.74
2023-10-14T23:40:31.912Z,20.70
2023-10-14T23:43:01.281Z,20.57
2023-10-14T23:45:32.489Z,20.53
2023-10-14T23:48:02.909Z,20.19
2023-10-14T23:50:31.661Z,20.16
2023-10-14T23:53:02.034Z,20.25
2023-10-14T23:55:29.786Z,20.24
2023-10-14T23:57:59.814Z,20.08
